Time;durP1;ratioP1;P1;durP2;ratioP2;P2;SDS_P1;SDS_P2;PMS_P1;PMS_P2;Temp;Humidity;BMP_temperature;BMP_pressure;BME280_temperature;BME280_humidity;BME280_pressure;Samples;Min_cycle;Max_cycle;Signal;HPM_P1;HPM_P2
2022/05/25 00:03:07;;;;;;;1.08;0.22;;;17.50;52.20;19.60;93590.00;;;;10355921;28;45185;-63
2022/05/25 00:08:27;;;;;;;0.30;0.20;;;17.60;52.20;19.60;93567.00;;;;10355252;28;45787;-63
2022/05/25 00:13:49;;;;;;;0.30;0.15;;;17.50;52.20;19.60;93588.00;;;;10355295;28;45864;-64
2022/05/25 00:24:49;;;;;;;0.30;0.20;;;17.50;52.20;19.60;93608.00;;;;10354346;28;45139;-63
2022/05/25 00:30:12;;;;;;;0.43;0.30;;;17.50;52.20;19.60;93599.00;;;;10355148;28;45312;-63
2022/05/25 00:35:37;;;;;;;0.52;0.30;;;17.50;52.30;19.50;93609.00;;;;10398951;22;45286;-63
2022/05/25 00:40:58;;;;;;;0.20;0.10;;;17.50;52.30;19.50;93600.00;;;;10357615;28;45123;-63
2022/05/25 00:46:21;;;;;;;0.10;0.10;;;17.50;52.30;19.50;93593.00;;;;10395089;28;45209;-63
2022/05/25 00:51:51;;;;;;;0.20;0.20;;;17.50;52.30;19.50;93594.00;;;;10395042;28;45162;-63
2022/05/25 00:57:15;;;;;;;0.60;0.20;;;17.50;52.30;19.50;93617.00;;;;10354053;28;45880;-63
2022/05/25 01:02:38;;;;;;;0.70;0.20;;;17.50;52.30;19.50;93614.00;;;;10349019;28;45308;-63
2022/05/25 01:08:14;;;;;;;0.25;0.20;;;17.50;52.20;19.50;93624.00;;;;10352118;28;45418;-63
2022/05/25 01:13:45;;;;;;;0.52;0.20;;;17.50;52.30;19.50;93629.00;;;;10353757;28;45307;-63
2022/05/25 01:19:20;;;;;;;0.52;0.25;;;17.50;52.30;19.50;93639.00;;;;10353498;28;45410;-63
2022/05/25 01:24:57;;;;;;;0.43;0.25;;;17.40;52.20;19.50;93645.00;;;;10352088;28;45323;-63
2022/05/25 01:30:22;;;;;;;0.32;0.10;;;17.40;52.20;19.50;93628.00;;;;10353169;28;44902;-63
2022/05/25 01:35:52;;;;;;;0.40;0.20;;;17.40;52.30;19.50;93633.00;;;;10356556;28;45507;-63
2022/05/25 01:41:21;;;;;;;0.52;0.20;;;17.40;52.90;19.50;93635.00;;;;10394912;28;45236;-63
2022/05/25 01:46:47;;;;;;;0.20;0.20;;;17.40;52.30;19.50;93636.00;;;;10400899;28;45118;-63
2022/05/25 01:52:11;;;;;;;0.20;0.20;;;17.40;52.30;19.50;93636.00;;;;10401391;28;45233;-63
2022/05/25 01:57:37;;;;;;;1.15;0.17;;;17.40;52.30;19.50;93640.00;;;;10400234;28;45130;-63
2022/05/25 02:09:11;;;;;;;0.20;0.20;;;17.40;52.30;19.40;93644.00;;;;10308695;28;45257;-63
2022/05/25 02:14:46;;;;;;;0.32;0.20;;;17.40;52.30;19.40;93635.00;;;;10400094;28;45202;-63
2022/05/25 02:20:14;;;;;;;0.30;0.10;;;17.40;52.30;19.40;93625.00;;;;10399975;28;45174;-62
2022/05/25 02:25:42;;;;;;;0.32;0.30;;;17.40;52.30;19.40;93630.00;;;;10399864;28;45321;-63
2022/05/25 02:31:07;;;;;;;0.28;0.20;;;17.40;52.30;19.40;93628.00;;;;10399665;28;45143;-63
2022/05/25 02:36:30;;;;;;;0.35;0.10;;;17.40;52.30;19.40;93639.00;;;;10398492;28;45221;-63
2022/05/25 02:41:53;;;;;;;0.85;0.20;;;17.40;52.30;19.40;93651.00;;;;10399400;28;45123;-63
2022/05/25 02:47:14;;;;;;;1.20;0.20;;;17.40;52.30;19.40;93656.00;;;;10398576;28;45253;-63
2022/05/25 02:52:37;;;;;;;0.47;0.20;;;17.40;52.90;19.40;93651.00;;;;10398470;28;45790;-63
2022/05/25 02:57:59;;;;;;;0.17;0.10;;;17.30;52.30;19.40;93672.00;;;;10398504;28;45669;-63
2022/05/25 03:03:19;;;;;;;0.25;0.20;;;17.30;52.20;19.40;93685.00;;;;10398571;28;45748;-63
2022/05/25 03:08:42;;;;;;;0.52;0.20;;;17.30;52.20;19.40;93675.00;;;;10397748;28;45177;-64
2022/05/25 03:14:03;;;;;;;0.30;0.10;;;17.30;52.20;19.40;93683.00;;;;10398176;28;45746;-63
2022/05/25 03:19:23;;;;;;;0.32;0.20;;;17.30;52.20;19.40;93677.00;;;;10397553;28;45118;-63
2022/05/25 03:24:45;;;;;;;0.10;0.10;;;17.30;52.90;19.40;93695.00;;;;10397940;28;45889;-63
2022/05/25 03:30:09;;;;;;;0.75;0.10;;;17.30;52.30;19.40;93683.00;;;;10397727;28;45405;-63
2022/05/25 03:35:29;;;;;;;1.13;0.17;;;17.30;52.30;19.30;93696.00;;;;10397066;28;45202;-63
2022/05/25 03:40:51;;;;;;;0.65;0.20;;;17.30;52.30;19.40;93706.00;;;;10397635;28;46120;-64
2022/05/25 03:46:12;;;;;;;0.45;0.20;;;17.30;52.20;19.30;93705.00;;;;10381391;28;45201;-63
2022/05/25 03:51:33;;;;;;;0.10;0.10;;;17.30;52.30;19.30;93704.00;;;;10356218;28;45183;-63
2022/05/25 03:56:55;;;;;;;0.40;0.25;;;17.30;52.30;19.30;93728.00;;;;10315770;28;45269;-63
2022/05/25 04:02:16;;;;;;;0.13;0.10;;;17.30;52.30;19.30;93729.00;;;;10315137;28;45122;-63
2022/05/25 04:07:41;;;;;;;0.15;0.15;;;17.30;52.30;19.40;93742.00;;;;10314617;28;45203;-62
2022/05/25 04:13:03;;;;;;;0.50;0.20;;;17.30;52.20;19.50;93737.00;;;;10314213;28;45179;-62
2022/05/25 04:18:24;;;;;;;0.17;0.10;;;17.40;52.20;19.50;93754.00;;;;10314278;28;45105;-63
2022/05/25 04:23:44;;;;;;;0.47;0.20;;;17.40;52.10;19.50;93746.00;;;;10314703;28;45690;-63
2022/05/25 04:29:07;;;;;;;0.40;0.22;;;17.50;52.00;19.60;93748.00;;;;10314095;28;45115;-63
2022/05/25 04:34:27;;;;;;;0.20;0.10;;;17.50;52.00;19.60;93741.00;;;;10313724;28;45224;-63
2022/05/25 04:39:48;;;;;;;0.38;0.20;;;17.50;51.90;19.60;93746.00;;;;10313850;28;45210;-63
2022/05/25 04:45:11;;;;;;;0.38;0.20;;;17.60;51.90;19.60;93756.00;;;;10314203;28;45261;-64
2022/05/25 04:50:35;;;;;;;0.30;0.17;;;17.60;51.80;19.60;93768.00;;;;10314201;28;45103;-64
2022/05/25 05:01:35;;;;;;;1.20;0.32;;;17.60;51.70;19.70;93777.00;;;;10313928;28;45753;-64
2022/05/25 05:06:56;;;;;;;0.28;0.17;;;17.60;51.60;19.70;93779.00;;;;10314295;28;45739;-64
2022/05/25 05:12:16;;;;;;;0.63;0.17;;;17.60;51.50;19.70;93794.00;;;;10320843;28;45204;-64
2022/05/25 05:17:38;;;;;;;0.22;0.15;;;17.60;51.50;19.80;93792.00;;;;10320177;28;45235;-64
2022/05/25 05:22:59;;;;;;;0.20;0.10;;;17.70;51.60;19.80;93806.00;;;;10319968;28;45155;-64
2022/05/25 05:28:24;;;;;;;0.20;0.20;;;17.70;51.60;19.80;93802.00;;;;10320116;28;45227;-65
2022/05/25 05:33:47;;;;;;;0.20;0.20;;;17.70;51.40;19.80;93814.00;;;;10320289;28;45103;-64
2022/05/25 05:39:10;;;;;;;0.57;0.20;;;17.70;51.40;19.80;93814.00;;;;10327455;28;45210;-64
2022/05/25 05:44:39;;;;;;;0.25;0.25;;;17.80;51.50;19.80;93818.00;;;;10397642;28;45810;-64
2022/05/25 05:50:01;;;;;;;1.30;0.20;;;17.80;51.50;19.80;93821.00;;;;10401306;28;45841;-64
2022/05/25 05:55:23;;;;;;;0.57;0.30;;;17.80;51.50;19.80;93809.00;;;;10374019;28;45919;-63
2022/05/25 06:00:44;;;;;;;0.40;0.28;;;17.80;51.40;19.90;93843.00;;;;10319374;28;45143;-63
2022/05/25 06:06:06;;;;;;;1.33;0.28;;;17.80;51.40;19.90;93841.00;;;;10318845;28;45691;-64
2022/05/25 06:11:27;;;;;;;1.13;0.30;;;17.80;51.30;19.90;93849.00;;;;10319080;28;45175;-64
2022/05/25 06:22:27;;;;;;;0.50;0.20;;;17.80;51.30;19.90;93861.00;;;;10327661;28;45170;-65
2022/05/25 06:27:48;;;;;;;0.28;0.20;;;17.80;51.30;20.00;93867.00;;;;10356953;28;45862;-66
2022/05/25 06:33:09;;;;;;;0.90;0.30;;;17.90;51.30;20.00;93879.00;;;;10356963;28;45277;-66
2022/05/25 06:38:31;;;;;;;0.95;0.30;;;17.90;51.20;20.00;93889.00;;;;10369582;22;45704;-59
2022/05/25 06:43:51;;;;;;;2.50;0.40;;;17.90;51.30;20.10;93888.00;;;;10388094;28;45861;-62
2022/05/25 06:49:12;;;;;;;0.63;0.30;;;17.90;50.80;20.10;93891.00;;;;10316821;28;45242;-62
2022/05/25 06:54:33;;;;;;;0.95;0.30;;;18.00;51.00;20.10;93902.00;;;;10315610;28;45231;-63
2022/05/25 06:59:54;;;;;;;1.27;0.30;;;18.00;51.00;20.10;93906.00;;;;10316542;28;45179;-62
2022/05/25 07:05:15;;;;;;;0.50;0.20;;;18.00;50.90;20.00;93910.00;;;;10317108;28;45935;-64
2022/05/25 07:10:37;;;;;;;0.60;0.30;;;17.90;50.30;20.10;93905.00;;;;10276011;28;45264;-65
2022/05/25 07:15:59;;;;;;;3.58;0.40;;;18.00;51.00;20.10;93906.00;;;;10276872;28;45184;-63
2022/05/25 07:21:25;;;;;;;1.17;0.30;;;18.00;50.80;20.10;93919.00;;;;10336842;28;45143;-61
2022/05/25 07:26:47;;;;;;;2.38;0.40;;;18.00;50.90;20.10;93924.00;;;;10358183;28;45142;-61
2022/05/25 07:32:11;;;;;;;3.92;0.43;;;18.00;50.90;20.20;93900.00;;;;10349772;28;45170;-63
2022/05/25 07:37:38;;;;;;;1.02;0.40;;;18.10;51.10;20.20;93913.00;;;;10338104;28;45368;-61
2022/05/25 07:43:04;;;;;;;4.93;0.70;;;18.10;51.10;20.20;93906.00;;;;10315969;28;45758;-63
2022/05/25 07:48:25;;;;;;;3.72;0.50;;;18.10;51.10;20.20;93916.00;;;;10316524;28;45273;-60
2022/05/25 07:53:58;;;;;;;3.53;0.40;;;18.10;51.00;20.30;93937.00;;;;10327504;28;45149;-59
2022/05/25 07:59:20;;;;;;;2.35;0.30;;;18.20;50.80;20.30;93927.00;;;;10315958;28;45886;-61
2022/05/25 08:10:23;;;;;;;1.98;0.70;;;18.20;51.10;20.20;93939.00;;;;10314740;28;45458;-60
2022/05/25 08:15:46;;;;;;;1.17;0.47;;;18.10;51.60;20.30;93936.00;;;;10314499;28;45718;-59
2022/05/25 08:21:07;;;;;;;1.63;0.45;;;18.20;51.20;20.30;93948.00;;;;10314977;28;45170;-62
2022/05/25 08:26:27;;;;;;;3.63;0.73;;;18.20;51.10;20.30;93951.00;;;;10314268;28;45806;-63
2022/05/25 08:31:50;;;;;;;1.75;0.50;;;18.20;51.00;20.30;93940.00;;;;10314685;28;45203;-61
2022/05/25 08:37:11;;;;;;;1.35;0.73;;;18.20;50.90;20.30;93960.00;;;;10313634;28;45227;-59
2022/05/25 08:42:42;;;;;;;1.67;0.65;;;18.20;50.90;20.30;93953.00;;;;10308782;28;45128;-62
2022/05/25 08:48:07;;;;;;;1.90;0.57;;;18.20;50.80;20.30;93958.00;;;;10314183;28;45250;-60
2022/05/25 08:53:28;;;;;;;2.10;0.60;;;18.20;50.90;20.30;93949.00;;;;10328153;28;45318;-61
2022/05/25 08:58:54;;;;;;;2.88;0.60;;;18.30;51.10;20.30;93942.00;;;;10345082;28;45186;-63
2022/05/25 09:04:24;;;;;;;1.60;0.60;;;18.30;51.20;20.40;93940.00;;;;10311008;28;45273;-60
2022/05/25 09:09:47;;;;;;;1.08;0.50;;;18.30;51.30;20.40;93940.00;;;;10318319;28;46121;-61
2022/05/25 09:15:15;;;;;;;5.60;0.60;;;18.30;51.20;20.40;93927.00;;;;10354319;28;45799;-62
2022/05/25 09:20:42;;;;;;;2.20;0.50;;;18.30;51.40;20.40;93933.00;;;;10335872;28;45225;-60
2022/05/25 09:26:02;;;;;;;4.07;0.70;;;18.30;51.40;20.40;93952.00;;;;10311637;28;46250;-59
2022/05/25 09:31:31;;;;;;;1.55;0.60;;;18.30;51.50;20.50;93953.00;;;;10311416;28;45195;-61
2022/05/25 09:37:06;;;;;;;2.17;0.50;;;18.40;51.40;20.50;93966.00;;;;10310694;28;45786;-61
2022/05/25 09:42:27;;;;;;;2.78;0.60;;;18.40;51.50;20.50;93946.00;;;;10311345;28;45787;-61
2022/05/25 09:47:50;;;;;;;2.25;0.52;;;18.40;51.40;20.50;93959.00;;;;10348294;28;45294;-59
2022/05/25 09:53:17;;;;;;;3.53;0.60;;;18.40;51.30;20.50;93949.00;;;;10340423;28;45850;-61
2022/05/25 09:58:44;;;;;;;2.87;0.60;;;18.40;51.30;20.50;93969.00;;;;10332954;28;45267;-60
2022/05/25 10:04:05;;;;;;;;;;;18.40;51.60;20.50;93968.00;;;;10358780;28;45377;-60
2022/05/25 10:09:29;;;;;;;2.78;0.50;;;18.40;51.30;20.50;93944.00;;;;10358214;28;45242;-60
2022/05/25 10:14:58;;;;;;;2.65;0.30;;;18.40;51.40;20.50;93962.00;;;;10317380;28;45228;-60
2022/05/25 10:20:25;;;;;;;0.85;0.30;;;18.40;51.40;20.40;93948.00;;;;10315934;28;45369;-60
2022/05/25 10:25:50;;;;;;;3.30;0.40;;;18.30;51.40;20.50;93966.00;;;;10316549;28;45243;-60
2022/05/25 10:37:00;;;;;;;2.97;0.57;;;18.30;51.40;20.50;93974.00;;;;10316334;28;45674;-60
2022/05/25 10:42:26;;;;;;;1.98;0.90;;;18.30;51.40;20.40;93958.00;;;;10317710;28;45193;-60
2022/05/25 10:48:07;;;;;;;1.20;0.43;;;18.30;51.40;20.40;93971.00;;;;10320220;28;45156;-61
2022/05/25 10:53:35;;;;;;;1.25;0.43;;;18.30;51.50;20.50;93971.00;;;;10317088;28;45181;-62
2022/05/25 10:59:15;;;;;;;1.55;0.60;;;18.40;51.80;20.50;93972.00;;;;10316251;28;45199;-60
2022/05/25 11:05:04;;;;;;;2.38;0.80;;;18.40;51.80;20.50;93979.00;;;;10331492;28;45432;-62
2022/05/25 11:10:44;;;;;;;2.15;0.57;;;18.40;52.20;20.50;93971.00;;;;10356449;28;46886;-60
2022/05/25 11:16:31;;;;;;;2.78;0.52;;;18.40;52.20;20.60;93972.00;;;;10356200;28;45160;-62
2022/05/25 11:22:05;;;;;;;1.60;0.57;;;18.50;52.30;20.60;93984.00;;;;10357122;28;45121;-61
2022/05/25 11:27:43;;;;;;;2.08;0.60;;;18.50;52.20;20.60;93973.00;;;;10355523;28;45237;-60
2022/05/25 11:33:25;;;;;;;2.60;1.02;;;18.50;52.10;20.60;93977.00;;;;10356515;28;45162;-60
2022/05/25 11:39:03;;;;;;;1.48;0.75;;;18.50;52.10;20.60;93980.00;;;;10354289;28;45770;-61
2022/05/25 11:44:49;;;;;;;1.45;0.60;;;18.50;52.50;20.60;93970.00;;;;10355974;28;45839;-60
2022/05/25 11:50:29;;;;;;;2.65;0.93;;;18.50;52.40;20.60;93963.00;;;;10328074;28;45665;-61
2022/05/25 11:56:00;;;;;;;3.83;0.70;;;18.50;51.60;20.60;93971.00;;;;10306086;28;45268;-60
2022/05/25 12:01:30;;;;;;;3.90;0.75;;;18.50;51.70;20.60;93954.00;;;;10313562;28;45223;-61
2022/05/25 12:07:04;;;;;;;2.88;0.60;;;18.50;51.90;20.60;93971.00;;;;10311742;28;45900;-62
2022/05/25 12:12:34;;;;;;;3.08;0.80;;;18.50;52.00;20.60;93969.00;;;;10314018;28;45241;-60
2022/05/25 12:18:14;;;;;;;3.13;0.70;;;18.50;52.00;20.60;93980.00;;;;10313107;28;45320;-60
2022/05/25 12:23:39;;;;;;;2.13;0.63;;;18.50;52.10;20.60;93969.00;;;;10314941;28;45143;-60
2022/05/25 12:29:12;;;;;;;1.67;0.70;;;18.50;52.20;20.60;93978.00;;;;10314703;28;45213;-60
2022/05/25 12:34:39;;;;;;;3.25;0.82;;;18.50;52.20;20.60;93964.00;;;;10315330;28;45319;-61
2022/05/25 12:40:11;;;;;;;4.88;1.02;;;18.50;52.10;20.60;93958.00;;;;10396081;23;45104;-64
2022/05/25 12:51:38;;;;;;;2.05;0.68;;;18.50;52.30;20.60;93980.00;;;;10353707;28;45222;-62
2022/05/25 12:57:02;;;;;;;3.60;0.80;;;18.50;52.20;20.60;93975.00;;;;10352907;28;45869;-63
2022/05/25 13:02:29;;;;;;;2.63;0.70;;;18.50;52.20;20.60;93981.00;;;;10352097;28;45207;-65
2022/05/25 13:07:50;;;;;;;;;;;18.50;52.00;20.70;93990.00;;;;10351145;28;46105;-64
2022/05/25 13:13:39;;;;;;;2.83;0.70;;;18.60;52.00;20.70;93977.00;;;;10351996;28;45116;-63
2022/05/25 13:19:15;;;;;;;3.35;1.10;;;18.60;52.00;20.70;93982.00;;;;10348715;28;45252;-64
2022/05/25 13:24:58;;;;;;;1.35;0.55;;;18.50;52.10;20.60;93971.00;;;;10351615;28;45202;-64
2022/05/25 13:30:45;;;;;;;1.88;0.50;;;18.50;51.80;20.60;93978.00;;;;10355349;28;45246;-64
2022/05/25 13:36:09;;;;;;;;;;;18.50;51.70;20.70;93986.00;;;;10359722;28;45198;-64
2022/05/25 13:41:33;;;;;;;2.35;0.60;;;18.50;51.60;20.70;93979.00;;;;10358588;28;45635;-65
2022/05/25 13:46:56;;;;;;;1.30;0.40;;;18.60;51.60;20.70;93985.00;;;;10358074;28;45047;-65
2022/05/25 13:52:24;;;;;;;2.17;0.60;;;18.60;51.30;20.70;93969.00;;;;10359469;28;45202;-65
2022/05/25 13:57:51;;;;;;;1.33;0.40;;;18.60;51.10;20.70;93989.00;;;;10358839;28;45151;-64
2022/05/25 14:03:26;;;;;;;1.80;0.52;;;18.60;50.90;20.70;93974.00;;;;10358640;28;45111;-65
2022/05/25 14:14:33;;;;;;;1.55;0.50;;;18.60;50.80;20.70;93972.00;;;;10359918;28;45164;-66
2022/05/25 14:19:58;;;;;;;1.88;0.28;;;18.60;50.70;20.70;93985.00;;;;10360357;28;45175;-66
2022/05/25 14:25:25;;;;;;;0.40;0.17;;;18.60;50.70;20.80;93993.00;;;;10358418;28;45786;-64
2022/05/25 14:30:45;;;;;;;1.17;0.40;;;18.60;50.60;20.70;94002.00;;;;10359268;28;45829;-64
2022/05/25 14:36:08;;;;;;;1.27;0.43;;;18.60;50.50;20.80;94002.00;;;;10358239;28;45658;-63
2022/05/25 14:41:43;;;;;;;2.42;0.40;;;18.70;50.40;20.70;94004.00;;;;10358169;28;45209;-66
2022/05/25 14:47:13;;;;;;;1.50;0.30;;;18.60;50.30;20.70;93993.00;;;;10358007;28;45334;-63
2022/05/25 14:52:36;;;;;;;1.60;0.32;;;18.60;50.50;20.60;94007.00;;;;10358424;28;45238;-63
2022/05/25 14:58:12;;;;;;;1.27;0.40;;;18.60;50.60;20.70;93997.00;;;;10359338;28;45152;-63
2022/05/25 15:03:39;;;;;;;2.05;0.52;;;18.60;50.70;20.70;93999.00;;;;10354332;28;45699;-62
2022/05/25 15:09:11;;;;;;;2.15;0.40;;;18.70;50.60;20.80;93990.00;;;;10356403;28;45773;-66
2022/05/25 15:20:17;;;;;;;3.40;0.30;;;18.70;50.70;20.90;94017.00;;;;10356086;28;45703;-61
2022/05/25 15:25:42;;;;;;;1.90;0.30;;;18.80;50.80;20.90;94018.00;;;;10354750;28;45218;-61
2022/05/25 15:31:06;;;;;;;1.00;0.30;;;18.80;50.80;20.90;94012.00;;;;10355760;28;45248;-62
2022/05/25 15:36:27;;;;;;;2.58;0.45;;;18.80;50.80;20.90;94013.00;;;;10354497;28;45807;-62
2022/05/25 15:41:49;;;;;;;2.30;0.30;;;18.80;50.80;21.00;94031.00;;;;10355448;28;45276;-61
2022/05/25 15:47:14;;;;;;;1.10;0.28;;;18.90;51.30;21.00;94026.00;;;;10354150;28;45238;-64
2022/05/25 15:52:35;;;;;;;0.55;0.20;;;18.90;50.90;21.10;94028.00;;;;10353613;28;45905;-63
2022/05/25 15:57:57;;;;;;;4.22;0.40;;;18.90;44.90;21.00;94024.00;;;;10354015;28;45691;-62
2022/05/25 16:03:22;;;;;;;0.40;0.20;;;18.80;41.20;21.00;94032.00;;;;10355206;28;45984;-62
2022/05/25 16:14:24;;;;;;;0.63;0.35;;;18.80;45.40;20.90;94032.00;;;;10314502;28;45299;-62
2022/05/25 16:19:44;;;;;;;0.75;0.10;;;18.80;46.10;20.90;94031.00;;;;10313891;28;45051;-61
2022/05/25 16:25:07;;;;;;;0.63;0.22;;;18.70;46.60;20.90;94028.00;;;;10313819;28;45383;-62
2022/05/25 16:30:29;;;;;;;0.57;0.10;;;18.80;47.00;20.80;94023.00;;;;10347762;28;45249;-64
2022/05/25 16:35:50;;;;;;;0.20;0.10;;;18.80;47.30;20.90;94023.00;;;;10346416;28;45387;-63
2022/05/25 16:41:11;;;;;;;0.60;0.20;;;18.80;47.20;21.00;94041.00;;;;10352919;28;45159;-63
2022/05/25 16:46:33;;;;;;;3.88;0.35;;;18.90;47.50;21.00;94040.00;;;;10350977;28;45750;-62
2022/05/25 16:51:54;;;;;;;1.67;0.35;;;18.90;47.70;21.00;94038.00;;;;10356409;28;45173;-63
2022/05/25 16:57:14;;;;;;;3.35;0.25;;;18.90;47.90;21.00;94044.00;;;;10348019;28;45816;-65
2022/05/25 17:02:37;;;;;;;1.08;0.30;;;18.80;48.40;20.90;94048.00;;;;10349189;28;45162;-63
2022/05/25 17:07:57;;;;;;;1.55;0.28;;;18.80;48.80;20.90;94052.00;;;;10352588;28;45227;-63
2022/05/25 17:13:18;;;;;;;0.68;0.30;;;18.90;48.70;20.90;94063.00;;;;10353234;28;45465;-63
2022/05/25 17:24:19;;;;;;;1.27;0.30;;;18.80;49.00;20.90;94075.00;;;;10351734;28;45246;-63
2022/05/25 17:29:40;;;;;;;0.52;0.28;;;18.80;49.00;20.80;94087.00;;;;10352797;28;45172;-62
2022/05/25 17:35:02;;;;;;;1.55;0.32;;;18.80;49.20;20.80;94098.00;;;;10353198;28;45197;-62
2022/05/25 17:46:06;;;;;;;1.20;0.28;;;18.70;49.40;20.70;94114.00;;;;10350137;28;45218;-63
2022/05/25 17:51:28;;;;;;;1.52;0.25;;;18.70;49.50;20.70;94118.00;;;;10351765;28;45561;-63
2022/05/25 17:56:49;;;;;;;0.90;0.30;;;18.60;49.50;20.70;94126.00;;;;10344209;28;45235;-63
2022/05/25 18:02:10;;;;;;;0.98;0.38;;;18.60;49.60;20.70;94130.00;;;;10310212;28;45483;-63
2022/05/25 18:07:32;;;;;;;0.73;0.20;;;18.60;49.70;20.70;94125.00;;;;10349620;28;45239;-62
2022/05/25 18:12:53;;;;;;;1.30;0.20;;;18.60;49.80;20.60;94140.00;;;;10322101;28;45205;-62
2022/05/25 18:18:18;;;;;;;1.00;0.20;;;18.50;49.80;20.60;94122.00;;;;10340862;28;45102;-62
2022/05/25 18:23:40;;;;;;;0.57;0.22;;;18.50;50.00;20.50;94141.00;;;;10355378;28;45253;-62
2022/05/25 18:29:00;;;;;;;1.10;0.20;;;18.40;50.00;20.50;94147.00;;;;10356822;28;45329;-61
2022/05/25 18:34:21;;;;;;;1.60;0.30;;;18.40;50.00;20.50;94150.00;;;;10340097;28;45766;-62
2022/05/25 18:39:43;;;;;;;1.00;0.30;;;18.40;50.00;20.50;94152.00;;;;10353966;28;45221;-63
2022/05/25 18:45:04;;;;;;;0.20;0.20;;;18.40;50.10;20.50;94164.00;;;;10352438;28;45138;-63
2022/05/25 18:50:28;;;;;;;0.68;0.20;;;18.30;50.10;20.50;94168.00;;;;10355318;28;45782;-63
2022/05/25 18:55:51;;;;;;;1.67;0.20;;;18.30;50.10;20.40;94177.00;;;;10353515;28;45374;-63
2022/05/25 19:01:12;;;;;;;1.58;0.20;;;18.30;50.20;20.40;94178.00;;;;10345244;28;45783;-63
2022/05/25 19:06:33;;;;;;;0.60;0.10;;;18.30;50.20;20.40;94184.00;;;;10341085;28;45097;-63
2022/05/25 19:11:54;;;;;;;0.40;0.20;;;18.30;50.30;20.40;94200.00;;;;10318338;28;45882;-63
2022/05/25 19:17:15;;;;;;;2.28;0.20;;;18.30;50.30;20.40;94191.00;;;;10315008;28;45107;-63
2022/05/25 19:22:41;;;;;;;0.88;0.28;;;18.30;50.10;20.40;94217.00;;;;10353965;28;45697;-63
2022/05/25 19:28:04;;;;;;;1.03;0.23;;;18.30;50.20;20.40;94224.00;;;;10352027;28;45698;-63
2022/05/25 19:33:24;;;;;;;0.10;0.10;;;18.20;50.30;20.30;94232.00;;;;10350575;28;45460;-63
2022/05/25 19:38:47;;;;;;;0.77;0.30;;;18.20;50.40;20.30;94241.00;;;;10342238;28;45790;-63
2022/05/25 19:44:16;;;;;;;0.20;0.20;;;18.30;50.50;20.30;94249.00;;;;10349949;28;45881;-62
2022/05/25 19:55:16;;;;;;;0.30;0.20;;;18.20;50.50;20.30;94261.00;;;;10356494;28;45344;-62
2022/05/25 20:00:38;;;;;;;0.35;0.10;;;18.10;50.40;20.30;94278.00;;;;10355508;28;45336;-62
2022/05/25 20:06:00;;;;;;;1.88;0.20;;;18.10;50.50;20.20;94286.00;;;;10355650;28;45166;-62
2022/05/25 20:11:20;;;;;;;0.10;0.10;;;18.10;50.60;20.20;94290.00;;;;10356080;28;45194;-62
2022/05/25 20:16:42;;;;;;;0.80;0.17;;;18.10;50.60;20.20;94307.00;;;;10355383;28;45376;-62
2022/05/25 20:22:04;;;;;;;0.22;0.20;;;18.00;50.60;20.20;94310.00;;;;10355706;28;45170;-62
2022/05/25 20:27:24;;;;;;;0.43;0.10;;;18.10;50.60;20.20;94332.00;;;;10355080;28;45254;-62
2022/05/25 20:32:47;;;;;;;0.52;0.10;;;18.00;50.60;20.10;94336.00;;;;10354656;28;45224;-62
2022/05/25 20:38:08;;;;;;;0.17;0.10;;;18.00;50.50;20.10;94330.00;;;;10353964;28;45507;-62
2022/05/25 20:43:28;;;;;;;0.68;0.10;;;18.00;50.60;20.10;94333.00;;;;10355244;28;45141;-62
2022/05/25 20:48:50;;;;;;;0.35;0.10;;;18.00;50.60;20.10;94343.00;;;;10354423;28;45182;-62
2022/05/25 20:54:11;;;;;;;0.45;0.10;;;18.00;50.60;20.10;94347.00;;;;10354729;28;45206;-62
2022/05/25 20:59:32;;;;;;;1.00;0.20;;;18.00;50.60;20.10;94348.00;;;;10353956;28;45678;-62
2022/05/25 21:04:54;;;;;;;0.60;0.30;;;17.90;50.50;20.10;94353.00;;;;10354289;28;45389;-62
2022/05/25 21:10:18;;;;;;;0.43;0.28;;;17.90;50.50;20.10;94357.00;;;;10353971;28;45152;-62
2022/05/25 21:15:38;;;;;;;0.05;0.05;;;17.90;50.40;20.00;94351.00;;;;10353927;28;45224;-62
2022/05/25 21:21:00;;;;;;;0.47;0.10;;;17.90;50.40;20.00;94349.00;;;;10354092;28;45183;-62
2022/05/25 21:26:21;;;;;;;0.10;0.10;;;17.90;50.50;20.00;94354.00;;;;10353360;28;45182;-62
2022/05/25 21:37:26;;;;;;;0.22;0.20;;;17.90;50.50;20.00;94356.00;;;;10289062;28;45277;-62
2022/05/25 21:42:47;;;;;;;0.45;0.10;;;17.90;50.60;20.00;94372.00;;;;10353349;28;45886;-63
2022/05/25 21:53:48;;;;;;;0.35;0.17;;;17.90;50.50;20.00;94372.00;;;;10359245;28;45922;-62
2022/05/25 21:59:09;;;;;;;0.98;0.20;;;17.80;50.50;19.90;94378.00;;;;10359855;28;45203;-62
2022/05/25 22:04:32;;;;;;;0.20;0.10;;;17.90;50.60;19.90;94379.00;;;;10360122;28;45835;-62
2022/05/25 22:09:54;;;;;;;0.20;0.20;;;17.80;50.50;19.90;94383.00;;;;10359577;28;45163;-62
2022/05/25 22:15:17;;;;;;;0.45;0.17;;;17.80;50.50;19.90;94386.00;;;;10359922;28;45807;-63
2022/05/25 22:20:38;;;;;;;0.20;0.10;;;17.80;50.50;19.90;94387.00;;;;10359570;28;45272;-62
2022/05/25 22:26:00;;;;;;;0.17;0.10;;;17.80;50.50;19.90;94391.00;;;;10358886;28;45738;-63
2022/05/25 22:31:20;;;;;;;0.98;0.20;;;17.80;50.50;19.90;94392.00;;;;10359205;28;45698;-62
2022/05/25 22:36:41;;;;;;;0.30;0.20;;;17.80;50.50;19.80;94400.00;;;;10358371;28;45782;-62
2022/05/25 22:42:02;;;;;;;0.38;0.20;;;17.80;50.50;19.90;94392.00;;;;10358868;28;45274;-62
2022/05/25 22:47:23;;;;;;;0.65;0.20;;;17.80;50.50;19.80;94406.00;;;;10358362;28;45427;-63
2022/05/25 22:52:43;;;;;;;0.10;0.10;;;17.80;50.50;19.80;94409.00;;;;10358693;28;45215;-62
2022/05/25 22:58:06;;;;;;;0.25;0.17;;;17.70;50.50;19.80;94402.00;;;;10357693;28;45167;-62
2022/05/25 23:03:27;;;;;;;0.20;0.20;;;17.70;50.50;19.80;94392.00;;;;10357556;28;45695;-63
2022/05/25 23:08:47;;;;;;;0.03;0.00;;;17.80;50.50;19.80;94414.00;;;;10357595;28;45373;-62
2022/05/25 23:14:09;;;;;;;0.20;0.20;;;17.70;50.50;19.80;94405.00;;;;10358089;28;45233;-62
2022/05/25 23:19:35;;;;;;;0.30;0.20;;;17.70;50.50;19.80;94418.00;;;;10357408;28;45826;-62
2022/05/25 23:25:01;;;;;;;0.30;0.10;;;17.70;50.50;19.80;94404.00;;;;10357582;28;45702;-62
2022/05/25 23:30:23;;;;;;;0.15;0.10;;;17.70;50.40;19.80;94411.00;;;;10356797;28;45293;-62
2022/05/25 23:35:44;;;;;;;0.55;0.17;;;17.70;50.40;19.80;94399.00;;;;10356832;28;45291;-63
2022/05/25 23:46:46;;;;;;;0.55;0.20;;;17.70;50.40;19.70;94410.00;;;;10355950;28;46362;-63
2022/05/25 23:52:07;;;;;;;0.30;0.10;;;17.70;50.40;19.70;94406.00;;;;10356916;28;45670;-62
2022/05/25 23:57:28;;;;;;;0.52;0.10;;;17.70;50.40;19.70;94402.00;;;;10356271;28;45330;-62
